createdAt,value
2019-06-26T00:00:42.774Z,25.02
2019-06-26T00:03:18.052Z,25.08
2019-06-26T00:05:53.193Z,25.02
2019-06-26T00:08:28.230Z,25.04
2019-06-26T00:11:03.350Z,24.99
2019-06-26T00:13:38.442Z,24.98
2019-06-26T00:16:13.430Z,25.00
2019-06-26T00:18:48.547Z,24.91
2019-06-26T00:21:23.524Z,24.94
2019-06-26T00:23:58.609Z,24.94
2019-06-26T00:26:33.901Z,24.86
2019-06-26T00:29:08.875Z,24.79
2019-06-26T00:31:44.039Z,24.76
2019-06-26T00:34:19.007Z,24.83
2019-06-26T00:36:54.010Z,24.85
2019-06-26T00:39:29.078Z,24.79
2019-06-26T00:42:04.077Z,24.79
2019-06-26T00:44:39.068Z,24.69
2019-06-26T00:47:14.146Z,24.79
2019-06-26T00:49:49.287Z,24.82
2019-06-26T00:52:24.308Z,24.76
2019-06-26T00:54:59.263Z,24.67
2019-06-26T00:57:34.373Z,24.67
2019-06-26T01:00:13.140Z,24.67
2019-06-26T01:02:48.302Z,24.64
2019-06-26T01:05:24.219Z,24.62
2019-06-26T01:07:59.345Z,24.58
2019-06-26T01:10:34.420Z,24.63
2019-06-26T01:13:09.535Z,24.72
2019-06-26T01:15:44.988Z,24.74
2019-06-26T01:18:20.122Z,24.76
2019-06-26T01:20:55.211Z,24.72
2019-06-26T01:23:30.222Z,24.71
2019-06-26T01:26:05.242Z,24.67
2019-06-26T01:28:40.408Z,24.75
2019-06-26T01:31:15.408Z,24.75
2019-06-26T01:33:50.713Z,24.77
2019-06-26T01:36:25.723Z,24.79
2019-06-26T01:39:00.690Z,24.79
2019-06-26T01:41:37.333Z,24.76
2019-06-26T01:44:15.247Z,24.73
2019-06-26T01:46:48.995Z,24.64
2019-06-26T01:49:24.191Z,24.67
2019-06-26T01:51:59.297Z,24.78
2019-06-26T01:54:34.267Z,24.73
2019-06-26T01:57:09.279Z,24.81
2019-06-26T01:59:44.500Z,24.77
2019-06-26T02:02:19.565Z,24.83
2019-06-26T02:04:54.543Z,24.80
2019-06-26T02:07:31.841Z,24.88
2019-06-26T02:10:07.416Z,24.85
2019-06-26T02:12:44.103Z,24.83
2019-06-26T02:15:19.372Z,24.80
2019-06-26T02:17:54.477Z,24.80
2019-06-26T02:20:29.603Z,24.72
2019-06-26T02:23:05.388Z,24.77
2019-06-26T02:25:40.442Z,24.82
2019-06-26T02:28:16.679Z,24.76
2019-06-26T02:30:52.010Z,24.69
2019-06-26T02:33:27.090Z,24.70
2019-06-26T02:36:02.043Z,24.64
2019-06-26T02:38:37.225Z,24.68
2019-06-26T02:41:12.220Z,24.56
2019-06-26T02:43:53.382Z,24.51
2019-06-26T02:46:28.489Z,24.45
2019-06-26T02:49:03.557Z,24.44
2019-06-26T02:51:38.512Z,24.39
2019-06-26T02:54:13.722Z,24.39
2019-06-26T02:56:48.701Z,24.40
2019-06-26T02:59:23.824Z,24.35
2019-06-26T03:01:58.773Z,24.33
2019-06-26T03:04:33.802Z,24.28
2019-06-26T03:07:08.785Z,24.23
2019-06-26T03:09:43.761Z,24.23
2019-06-26T03:12:18.784Z,24.21
2019-06-26T03:15:08.436Z,24.29
2019-06-26T03:17:33.872Z,24.28
2019-06-26T03:20:10.424Z,24.19
2019-06-26T03:22:47.161Z,24.24
2019-06-26T03:25:22.135Z,24.25
2019-06-26T03:27:57.148Z,24.32
2019-06-26T03:30:32.171Z,24.27
2019-06-26T03:33:07.482Z,24.22
2019-06-26T03:35:42.435Z,24.23
2019-06-26T03:38:17.459Z,24.15
2019-06-26T03:40:52.476Z,24.26
2019-06-26T03:43:27.537Z,24.23
2019-06-26T03:46:02.549Z,24.23
2019-06-26T03:48:37.561Z,24.27
2019-06-26T03:51:14.000Z,24.22
2019-06-26T03:53:49.308Z,24.21
2019-06-26T03:56:24.289Z,24.21
2019-06-26T03:58:59.396Z,24.28
2019-06-26T04:01:34.478Z,24.20
2019-06-26T04:04:09.570Z,24.26
2019-06-26T04:06:44.570Z,24.23
2019-06-26T04:09:19.565Z,24.16
2019-06-26T04:11:54.756Z,24.13
2019-06-26T04:14:29.880Z,24.19
2019-06-26T04:17:10.242Z,24.25
2019-06-26T04:19:45.258Z,24.26
2019-06-26T04:22:20.270Z,24.40
2019-06-26T04:24:55.490Z,24.30
2019-06-26T04:27:30.568Z,24.36
2019-06-26T04:30:06.311Z,24.31
2019-06-26T04:32:41.400Z,24.44
2019-06-26T04:35:16.603Z,24.48
2019-06-26T04:37:51.730Z,24.53
2019-06-26T04:40:26.854Z,24.53
2019-06-26T04:43:01.955Z,24.53
2019-06-26T04:45:37.152Z,24.52
2019-06-26T04:48:12.206Z,24.47
2019-06-26T04:50:47.199Z,24.27
2019-06-26T04:53:23.976Z,24.24
2019-06-26T04:55:59.283Z,24.51
2019-06-26T04:58:34.424Z,24.32
2019-06-26T05:01:09.461Z,24.47
2019-06-26T05:03:44.557Z,24.55
2019-06-26T05:06:19.812Z,24.54
2019-06-26T05:08:54.880Z,24.58
2019-06-26T05:11:29.971Z,24.67
2019-06-26T05:14:05.898Z,24.71
2019-06-26T05:16:41.059Z,24.58
2019-06-26T05:19:17.200Z,24.59
2019-06-26T05:21:52.206Z,24.58
2019-06-26T05:24:27.245Z,24.57
2019-06-26T05:27:02.898Z,24.67
2019-06-26T05:29:38.078Z,24.51
2019-06-26T05:32:13.169Z,24.50
2019-06-26T05:34:48.164Z,24.67
2019-06-26T05:37:23.226Z,24.65
2019-06-26T05:39:58.592Z,24.72
2019-06-26T05:42:34.508Z,24.77
2019-06-26T05:45:14.121Z,24.66
2019-06-26T05:47:49.259Z,24.73
2019-06-26T05:50:24.741Z,24.73
2019-06-26T05:52:59.730Z,24.87
2019-06-26T05:55:36.357Z,24.75
2019-06-26T05:58:11.465Z,24.76
2019-06-26T06:00:48.063Z,24.98
2019-06-26T06:03:23.338Z,25.03
2019-06-26T06:05:58.475Z,24.90
2019-06-26T06:08:33.935Z,24.79
2019-06-26T06:11:09.124Z,24.73
2019-06-26T06:13:44.115Z,24.78
2019-06-26T06:16:20.356Z,24.76
2019-06-26T06:18:55.497Z,24.76
2019-06-26T06:21:31.270Z,24.76
2019-06-26T06:24:06.720Z,24.89
2019-06-26T06:26:41.773Z,25.03
2019-06-26T06:29:16.884Z,25.17
2019-06-26T06:31:51.980Z,24.95
2019-06-26T06:34:26.989Z,24.96
2019-06-26T06:37:02.111Z,25.14
2019-06-26T06:39:37.208Z,25.00
2019-06-26T06:42:12.299Z,24.97
2019-06-26T06:44:47.590Z,25.05
2019-06-26T06:47:23.411Z,25.24
2019-06-26T06:49:58.632Z,25.10
2019-06-26T06:52:33.910Z,25.34
2019-06-26T06:55:09.696Z,25.42
2019-06-26T06:57:45.484Z,25.45
2019-06-26T07:00:21.775Z,25.44
2019-06-26T07:02:57.092Z,25.60
2019-06-26T07:05:32.132Z,25.53
2019-06-26T07:08:07.101Z,25.55
2019-06-26T07:10:42.251Z,25.64
2019-06-26T07:13:17.756Z,25.80
2019-06-26T07:15:52.811Z,25.84
2019-06-26T07:18:27.913Z,25.85
2019-06-26T07:21:04.049Z,25.78
2019-06-26T07:23:39.162Z,25.90
2019-06-26T07:26:14.138Z,25.84
2019-06-26T07:28:49.184Z,25.92
2019-06-26T07:31:24.330Z,26.10
2019-06-26T07:33:59.501Z,26.13
2019-06-26T07:36:35.238Z,26.33
2019-06-26T07:39:10.267Z,26.31
2019-06-26T07:41:45.259Z,26.26
2019-06-26T07:44:20.294Z,26.21
2019-06-26T07:46:55.264Z,26.12
2019-06-26T07:49:30.425Z,26.20
2019-06-26T07:52:05.407Z,26.46
2019-06-26T07:54:40.494Z,26.50
2019-06-26T07:57:15.524Z,26.52
2019-06-26T07:59:50.626Z,26.53
2019-06-26T08:02:25.692Z,26.57
2019-06-26T08:05:02.859Z,26.61
2019-06-26T08:07:37.833Z,26.73
2019-06-26T08:10:16.400Z,26.38
2019-06-26T08:12:51.542Z,26.76
2019-06-26T08:15:26.746Z,26.70
2019-06-26T08:18:01.784Z,26.69
2019-06-26T08:20:51.627Z,26.45
2019-06-26T08:23:13.523Z,26.85
2019-06-26T08:25:48.644Z,26.97
2019-06-26T08:28:23.933Z,26.89
2019-06-26T08:30:59.033Z,27.06
2019-06-26T08:33:34.249Z,27.23
2019-06-26T08:36:09.755Z,27.24
2019-06-26T08:38:44.732Z,27.54
2019-06-26T08:41:19.846Z,27.33
2019-06-26T08:43:54.815Z,27.41
2019-06-26T08:46:29.794Z,27.23
2019-06-26T08:49:04.792Z,27.19
2019-06-26T08:51:39.930Z,27.30
2019-06-26T08:54:14.976Z,27.53
2019-06-26T08:56:49.966Z,27.37
2019-06-26T08:59:24.931Z,27.36
2019-06-26T09:02:00.127Z,27.60
2019-06-26T09:04:35.408Z,27.82
2019-06-26T09:07:10.707Z,27.83
2019-06-26T09:09:45.703Z,27.95
2019-06-26T09:12:20.714Z,27.85
2019-06-26T09:14:55.694Z,27.52
2019-06-26T09:17:30.705Z,27.86
2019-06-26T09:20:06.888Z,27.94
2019-06-26T09:22:42.316Z,28.08
2019-06-26T09:25:21.913Z,27.90
2019-06-26T09:27:54.097Z,27.97
2019-06-26T09:30:29.614Z,27.95
2019-06-26T09:33:04.725Z,27.80
2019-06-26T09:35:40.762Z,28.06
2019-06-26T09:38:15.917Z,28.06
2019-06-26T09:40:51.013Z,28.04
2019-06-26T09:43:26.218Z,28.24
2019-06-26T09:46:01.393Z,28.24
2019-06-26T09:48:51.511Z,28.43
2019-06-26T09:51:14.148Z,28.32
2019-06-26T09:53:49.103Z,28.16
2019-06-26T09:56:24.225Z,28.35
2019-06-26T09:58:59.380Z,28.49
2019-06-26T10:01:36.218Z,28.58
2019-06-26T10:04:11.390Z,28.71
2019-06-26T10:06:46.411Z,28.59
2019-06-26T10:09:21.806Z,28.53
2019-06-26T10:11:56.814Z,28.34
2019-06-26T10:14:46.559Z,28.05
2019-06-26T10:17:10.152Z,28.22
2019-06-26T10:19:45.233Z,28.27
2019-06-26T10:22:20.540Z,28.50
2019-06-26T10:24:55.650Z,28.60
2019-06-26T10:27:30.801Z,28.61
2019-06-26T10:30:07.438Z,28.56
2019-06-26T10:32:42.687Z,28.70
2019-06-26T10:35:18.801Z,28.66
2019-06-26T10:37:53.792Z,28.89
2019-06-26T10:40:28.866Z,28.51
2019-06-26T10:43:03.910Z,28.19
2019-06-26T10:45:38.899Z,28.14
2019-06-26T10:48:13.907Z,28.26
2019-06-26T10:50:57.930Z,28.47
2019-06-26T10:53:25.666Z,28.78
2019-06-26T10:56:00.747Z,28.29
2019-06-26T10:58:35.729Z,27.76
2019-06-26T11:01:11.063Z,28.26
2019-06-26T11:03:46.660Z,28.25
2019-06-26T11:06:24.202Z,28.60
2019-06-26T11:08:59.345Z,28.55
2019-06-26T11:11:34.576Z,28.28
2019-06-26T11:14:09.559Z,28.38
2019-06-26T11:16:44.639Z,29.12
2019-06-26T11:19:19.767Z,29.76
2019-06-26T11:21:54.923Z,29.34
2019-06-26T11:24:30.068Z,29.34
2019-06-26T11:27:05.051Z,29.04
2019-06-26T11:29:40.823Z,28.45
2019-06-26T11:32:15.952Z,28.36
2019-06-26T11:34:51.332Z,27.76
2019-06-26T11:37:27.420Z,27.79
2019-06-26T11:40:02.799Z,28.56
2019-06-26T11:42:37.981Z,29.12
2019-06-26T11:45:13.961Z,29.80
2019-06-26T11:47:49.200Z,29.52
2019-06-26T11:50:30.336Z,29.62
2019-06-26T11:53:05.412Z,29.12
2019-06-26T11:55:40.597Z,29.24
2019-06-26T11:58:15.611Z,29.30
2019-06-26T12:00:50.853Z,29.09
2019-06-26T12:03:26.333Z,29.55
2019-06-26T12:06:17.832Z,29.82
2019-06-26T12:08:38.778Z,29.97
2019-06-26T12:11:13.852Z,30.19
2019-06-26T12:13:49.209Z,30.27
2019-06-26T12:16:24.435Z,30.38
2019-06-26T12:18:59.460Z,29.73
2019-06-26T12:21:34.609Z,30.48
2019-06-26T12:24:10.619Z,30.33
2019-06-26T12:26:45.614Z,30.51
2019-06-26T12:29:20.762Z,30.03
2019-06-26T12:31:55.859Z,29.87
2019-06-26T12:34:31.096Z,29.86
2019-06-26T12:37:06.376Z,29.06
2019-06-26T12:39:41.661Z,29.77
2019-06-26T12:42:16.950Z,29.83
2019-06-26T12:44:54.206Z,29.96
2019-06-26T12:47:29.295Z,30.01
2019-06-26T12:50:06.050Z,30.76
2019-06-26T12:52:41.297Z,30.36
2019-06-26T12:55:16.295Z,31.19
2019-06-26T12:57:52.884Z,31.60
2019-06-26T13:00:28.075Z,31.43
2019-06-26T13:03:03.370Z,31.37
2019-06-26T13:05:38.386Z,31.89
2019-06-26T13:08:13.513Z,31.80
2019-06-26T13:10:50.365Z,32.86
2019-06-26T13:13:25.245Z,31.82
2019-06-26T13:16:00.286Z,31.26
2019-06-26T13:18:35.388Z,31.87
2019-06-26T13:21:10.579Z,32.15
2019-06-26T13:23:45.923Z,32.12
2019-06-26T13:26:21.107Z,32.81
2019-06-26T13:28:56.267Z,32.73
2019-06-26T13:31:31.419Z,32.25
2019-06-26T13:34:06.809Z,31.84
2019-06-26T13:36:41.915Z,31.43
2019-06-26T13:39:16.893Z,31.52
2019-06-26T13:41:51.909Z,31.13
2019-06-26T13:44:28.194Z,31.87
2019-06-26T13:47:03.219Z,32.24
2019-06-26T13:49:38.224Z,31.95
2019-06-26T13:52:13.217Z,32.22
2019-06-26T13:54:48.190Z,31.68
2019-06-26T13:57:23.195Z,31.61
2019-06-26T13:59:58.291Z,31.99
2019-06-26T14:02:33.732Z,32.25
2019-06-26T14:05:09.044Z,32.87
2019-06-26T14:07:44.013Z,33.27
2019-06-26T14:10:19.307Z,32.88
2019-06-26T14:12:54.342Z,33.30
2019-06-26T14:15:29.525Z,33.00
2019-06-26T14:18:04.549Z,32.44
2019-06-26T14:20:39.733Z,31.33
2019-06-26T14:23:14.879Z,29.95
2019-06-26T14:25:49.861Z,29.13
2019-06-26T14:28:24.956Z,29.01
2019-06-26T14:31:01.801Z,29.03
2019-06-26T14:33:39.058Z,28.46
2019-06-26T14:36:14.071Z,28.72
2019-06-26T14:38:49.184Z,29.95
2019-06-26T14:41:25.240Z,31.40
2019-06-26T14:44:00.294Z,31.07
2019-06-26T14:46:35.444Z,30.36
2019-06-26T14:49:15.139Z,29.40
2019-06-26T14:51:54.572Z,28.33
2019-06-26T14:54:29.862Z,27.63
2019-06-26T14:57:05.110Z,26.76
2019-06-26T14:59:40.132Z,26.75
2019-06-26T15:02:15.233Z,25.93
2019-06-26T15:04:51.031Z,25.58
2019-06-26T15:07:26.035Z,25.54
2019-06-26T15:10:01.039Z,25.39
2019-06-26T15:12:36.059Z,25.07
2019-06-26T15:18:15.550Z,24.87
2019-06-26T15:21:25.551Z,24.95
2019-06-26T15:24:35.919Z,24.89
2019-06-26T15:27:46.109Z,25.02
2019-06-26T15:30:56.160Z,24.68
2019-06-26T15:34:06.767Z,24.59
2019-06-26T15:37:16.438Z,24.52
2019-06-26T15:40:26.264Z,24.56
2019-06-26T15:43:36.413Z,24.64
2019-06-26T15:46:47.592Z,24.58
2019-06-26T15:49:57.831Z,24.86
2019-06-26T15:53:08.824Z,24.91
2019-06-26T15:56:19.567Z,25.09
2019-06-26T15:59:31.148Z,24.95
2019-06-26T16:02:42.021Z,24.78
2019-06-26T16:05:53.113Z,24.59
2019-06-26T16:09:03.919Z,24.76
2019-06-26T16:12:15.139Z,24.50
2019-06-26T16:15:26.363Z,24.05
2019-06-26T16:18:43.255Z,24.12
2019-06-26T16:21:54.091Z,24.09
2019-06-26T16:25:08.053Z,24.06
2019-06-26T16:28:18.303Z,23.77
2019-06-26T16:31:29.177Z,23.52
2019-06-26T16:34:40.018Z,23.17
2019-06-26T16:37:50.764Z,22.98
2019-06-26T16:41:01.973Z,22.90
2019-06-26T16:44:12.521Z,23.00
2019-06-26T16:47:22.471Z,23.12
2019-06-26T16:50:32.616Z,23.35
2019-06-26T16:53:42.670Z,23.66
2019-06-26T16:56:53.582Z,23.07
2019-06-26T17:00:09.795Z,23.03
2019-06-26T17:03:17.581Z,22.75
2019-06-26T17:06:28.017Z,22.89
2019-06-26T17:09:39.945Z,22.99
2019-06-26T17:12:49.884Z,23.00
2019-06-26T17:16:01.624Z,22.61
2019-06-26T17:19:13.862Z,22.56
2019-06-26T17:22:23.775Z,22.24
2019-06-26T17:25:34.595Z,21.98
2019-06-26T17:28:45.473Z,21.63
2019-06-26T17:31:55.605Z,21.42
2019-06-26T17:35:06.153Z,21.22
2019-06-26T17:38:16.359Z,21.31
2019-06-26T17:41:27.511Z,20.98
2019-06-26T17:44:38.206Z,20.41
2019-06-26T17:47:48.482Z,20.67
2019-06-26T17:50:59.318Z,20.85
2019-06-26T17:54:10.265Z,21.03
2019-06-26T17:57:20.237Z,20.63
2019-06-26T18:00:36.099Z,20.39
2019-06-26T18:03:47.251Z,20.51
2019-06-26T18:06:57.821Z,20.30
2019-06-26T18:10:08.963Z,20.42
2019-06-26T18:13:19.922Z,20.18
2019-06-26T18:16:29.747Z,20.28
2019-06-26T18:19:40.471Z,20.20
2019-06-26T18:23:05.745Z,19.98
2019-06-26T18:26:13.014Z,20.09
2019-06-26T18:29:18.583Z,20.36
2019-06-26T18:32:30.607Z,20.21
2019-06-26T18:35:40.791Z,20.12
2019-06-26T18:38:56.171Z,20.06
2019-06-26T18:42:06.987Z,20.22
2019-06-26T18:45:18.194Z,20.10
2019-06-26T18:48:40.235Z,19.74
2019-06-26T18:51:53.299Z,19.57
2019-06-26T18:55:03.734Z,19.48
2019-06-26T18:58:14.784Z,19.52
2019-06-26T19:01:25.697Z,19.68
2019-06-26T19:04:35.547Z,19.59
2019-06-26T19:07:46.488Z,19.49
2019-06-26T19:10:57.005Z,19.36
2019-06-26T19:14:08.030Z,19.49
2019-06-26T19:17:18.058Z,19.41
2019-06-26T19:20:29.066Z,19.23
2019-06-26T19:23:39.772Z,18.96
2019-06-26T19:26:50.975Z,19.07
2019-06-26T19:30:01.076Z,18.89
2019-06-26T19:33:10.813Z,18.88
2019-06-26T19:36:24.137Z,18.86
2019-06-26T19:39:33.040Z,18.74
2019-06-26T19:42:44.254Z,18.65
2019-06-26T19:45:55.092Z,18.55
2019-06-26T19:49:06.017Z,18.45
2019-06-26T19:52:16.811Z,18.45
2019-06-26T19:55:26.796Z,18.46
2019-06-26T19:58:37.774Z,18.66
2019-06-26T20:01:51.278Z,18.67
2019-06-26T20:05:00.706Z,18.75
2019-06-26T20:08:11.195Z,18.66
2019-06-26T20:11:22.389Z,18.53
2019-06-26T20:14:32.555Z,18.70
2019-06-26T20:17:42.370Z,18.67
2019-06-26T20:20:52.960Z,18.58
2019-06-26T20:24:03.120Z,18.61
2019-06-26T20:27:15.032Z,18.59
2019-06-26T20:30:30.558Z,18.40
2019-06-26T20:33:41.456Z,18.37
2019-06-26T20:36:52.472Z,18.43
2019-06-26T20:40:06.253Z,18.44
2019-06-26T20:43:16.741Z,18.41
2019-06-26T20:46:26.912Z,18.33
2019-06-26T20:49:52.586Z,18.33
2019-06-26T20:52:51.148Z,18.09
2019-06-26T20:56:05.260Z,18.03
2019-06-26T20:59:13.299Z,18.23
2019-06-26T21:02:23.574Z,18.20
2019-06-26T21:05:34.290Z,17.89
2019-06-26T21:08:45.281Z,17.68
2019-06-26T21:11:56.119Z,17.85
2019-06-26T21:15:07.697Z,18.00
2019-06-26T21:17:42.505Z,18.25
2019-06-26T21:20:18.090Z,18.27
2019-06-26T21:22:53.079Z,18.17
2019-06-26T21:25:28.190Z,18.28
2019-06-26T21:28:06.524Z,18.33
2019-06-26T21:30:41.725Z,18.19
2019-06-26T21:33:16.738Z,18.15
2019-06-26T21:35:51.768Z,17.82
2019-06-26T21:38:26.767Z,17.79
2019-06-26T21:41:03.162Z,17.58
2019-06-26T21:43:38.135Z,17.65
2019-06-26T21:46:13.146Z,17.86
2019-06-26T21:48:48.213Z,17.80
2019-06-26T21:51:23.235Z,17.54
2019-06-26T21:53:58.328Z,17.47
2019-06-26T21:56:51.055Z,17.57
2019-06-26T21:59:43.817Z,17.54
2019-06-26T22:02:36.587Z,17.49
2019-06-26T22:05:12.211Z,17.54
2019-06-26T22:07:54.351Z,17.55
2019-06-26T22:10:30.975Z,17.64
2019-06-26T22:13:06.286Z,17.63
2019-06-26T22:15:41.464Z,17.34
2019-06-26T22:18:16.495Z,17.24
2019-06-26T22:20:52.103Z,17.05
2019-06-26T22:23:27.162Z,17.08
2019-06-26T22:26:02.255Z,16.95
2019-06-26T22:28:38.043Z,17.07
2019-06-26T22:31:13.026Z,17.23
2019-06-26T22:33:47.993Z,17.39
2019-06-26T22:36:22.982Z,17.32
2019-06-26T22:38:59.151Z,17.27
2019-06-26T22:41:34.999Z,17.09
2019-06-26T22:44:09.970Z,17.16
2019-06-26T22:46:45.165Z,17.26
2019-06-26T22:49:20.239Z,17.33
2019-06-26T22:51:56.081Z,16.95
2019-06-26T22:54:31.039Z,16.91
2019-06-26T22:57:06.036Z,16.99
2019-06-26T22:59:41.129Z,16.83
2019-06-26T23:02:17.507Z,16.75
2019-06-26T23:04:52.502Z,16.89
2019-06-26T23:07:27.485Z,16.94
2019-06-26T23:10:02.477Z,16.92
2019-06-26T23:12:37.607Z,16.78
2019-06-26T23:15:13.209Z,16.85
2019-06-26T23:17:48.437Z,16.98
2019-06-26T23:20:23.406Z,16.91
2019-06-26T23:22:58.504Z,16.97
2019-06-26T23:25:35.186Z,16.96
2019-06-26T23:28:10.203Z,16.84
2019-06-26T23:30:45.179Z,16.73
2019-06-26T23:33:20.376Z,16.64
2019-06-26T23:35:55.348Z,16.66
2019-06-26T23:38:31.529Z,16.64
2019-06-26T23:41:06.519Z,16.78
2019-06-26T23:43:41.635Z,16.75
2019-06-26T23:46:16.603Z,16.62
2019-06-26T23:48:51.813Z,16.61
2019-06-26T23:51:26.773Z,16.38
2019-06-26T23:54:01.823Z,16.30
2019-06-26T23:56:40.632Z,16.26
2019-06-26T23:59:13.661Z,16.24
